PWSweather.com
Personal Weather Stations
Station Observations
BZA01
Southern Palatinate, Bad BergzabernDE 76887

Southern PalatinateBad BergzabernDE 76887

Lat: 49.096, Lon: 8

Elevation: 640

Station Type: Davis VP2+

Latest ConditionsUpdated 3:12:02 PM GMT+01:01 Tuesday, Dec 18, 2018
Currently Today's Max Today's Min Today's Average
Temperature 40.6°F4.8°C 42.1°F5.6°C 32.7°F0.4°C 37.2°F2.9°C
Dew Point 38.8°F3.8°C 41.0°F5.0°C 31.5°F-0.3°C 35.9°F2.2°C
Winds 0.9 mph ENE1.4 kmh ENE 2.9 mph -4.7 kmh - - 0.9 mph 1.4 kmh
Wind Gusts 0.9 mph1.4 kmh 4.0 mph6.4 kmh - -
Humidity 93% 96% 93% 95%
Pressure 30.16 in1021.3 mb 30.37 in1028.4 mb 30.16 in1021.3 mb -
Precipitation - 0.01 in0.3 mm - -
Hour Temp Dew Point Humidity Winds Wind Gusts Pressure Precip Precip Rate Daily Precip Total
03:12 PM 40.6°F4.8°C 38.8°F3.8°C 93% 0.9 mph ENE1.4 kmh ENE 0.9 mph1.4 kmh 30.16 in1021.3 mb - 0.00 in0.0 mm 0.01 in0.3 mm
03:07 PM 40.8°F4.9°C 39.0°F3.9°C 93% 2.0 mph ENE3.2 kmh ENE -- 30.16 in1021.3 mb - 0.00 in0.0 mm 0.01 in0.3 mm
03:02 PM 40.8°F4.9°C 39.0°F3.9°C 93% 2.0 mph ENE3.2 kmh ENE 2.9 mph4.7 kmh 30.16 in1021.3 mb - 0.00 in0.0 mm 0.01 in0.3 mm
02:57 PM 40.6°F4.8°C 38.8°F3.8°C 93% 2.0 mph ENE3.2 kmh ENE 2.9 mph4.7 kmh 30.16 in1021.3 mb - 0.00 in0.0 mm 0.01 in0.3 mm
02:52 PM 40.6°F4.8°C 38.8°F3.8°C 93% 0.9 mph ENE1.4 kmh ENE 2.0 mph3.2 kmh 30.17 in1021.7 mb - 0.00 in0.0 mm 0.01 in0.3 mm
02:47 PM 40.6°F4.8°C 38.8°F3.8°C 93% 0.9 mph ENE1.4 kmh ENE 2.0 mph3.2 kmh 30.17 in1021.7 mb - 0.00 in0.0 mm 0.01 in0.3 mm
02:42 PM 40.5°F4.7°C 38.7°F3.7°C 93% 0.9 mph ENE1.4 kmh ENE -- 30.18 in1022.0 mb - 0.00 in0.0 mm 0.01 in0.3 mm
02:37 PM 40.5°F4.7°C 38.7°F3.7°C 93% 0.9 mph ENE1.4 kmh ENE 0.9 mph1.4 kmh 30.18 in1022.0 mb - 0.00 in0.0 mm 0.01 in0.3 mm
02:32 PM 40.5°F4.7°C 38.8°F3.8°C 94% 2.0 mph ENE3.2 kmh ENE 2.0 mph3.2 kmh 30.18 in1022.0 mb - 0.00 in0.0 mm 0.01 in0.3 mm
02:27 PM 40.5°F4.7°C 38.8°F3.8°C 94% 0.9 mph ENE1.4 kmh ENE 2.0 mph3.2 kmh 30.18 in1022.0 mb - 0.00 in0.0 mm 0.01 in0.3 mm
02:22 PM 40.3°F4.6°C 38.7°F3.7°C 94% 2.0 mph ENE3.2 kmh ENE 0.9 mph1.4 kmh 30.19 in1022.4 mb - 0.00 in0.0 mm 0.01 in0.3 mm
02:17 PM 40.3°F4.6°C 38.7°F3.7°C 94% 2.0 mph ENE3.2 kmh ENE 0.9 mph1.4 kmh 30.19 in1022.4 mb - 0.00 in0.0 mm 0.01 in0.3 mm
02:12 PM 40.1°F4.5°C 38.5°F3.6°C 94% 2.0 mph ENE3.2 kmh ENE 2.9 mph4.7 kmh 30.19 in1022.4 mb - 0.00 in0.0 mm 0.01 in0.3 mm
02:07 PM 39.9°F4.4°C 38.3°F3.5°C 94% 2.0 mph ENE3.2 kmh ENE 2.0 mph3.2 kmh 30.19 in1022.4 mb - 0.00 in0.0 mm 0.01 in0.3 mm
02:02 PM 39.9°F4.4°C 38.3°F3.5°C 94% 2.0 mph ENE3.2 kmh ENE 2.0 mph3.2 kmh 30.19 in1022.4 mb - 0.00 in0.0 mm 0.01 in0.3 mm
01:57 PM 39.7°F4.3°C 38.1°F3.4°C 94% 2.0 mph ENE3.2 kmh ENE 2.0 mph3.2 kmh 30.20 in1022.7 mb - 0.00 in0.0 mm 0.01 in0.3 mm
01:52 PM 39.7°F4.3°C 38.5°F3.6°C 95% 2.0 mph ENE3.2 kmh ENE 2.9 mph4.7 kmh 30.20 in1022.7 mb - 0.00 in0.0 mm 0.01 in0.3 mm
01:47 PM 39.7°F4.3°C 38.5°F3.6°C 95% 2.0 mph ENE3.2 kmh ENE -- 30.20 in1022.7 mb - 0.00 in0.0 mm 0.01 in0.3 mm
01:42 PM 39.6°F4.2°C 38.3°F3.5°C 95% 2.0 mph ENE3.2 kmh ENE 2.0 mph3.2 kmh 30.21 in1023.0 mb - 0.00 in0.0 mm 0.01 in0.3 mm
01:37 PM 39.6°F4.2°C 38.3°F3.5°C 95% 2.0 mph ENE3.2 kmh ENE 2.0 mph3.2 kmh 30.21 in1023.0 mb - 0.00 in0.0 mm 0.01 in0.3 mm
01:32 PM 39.6°F4.2°C 38.3°F3.5°C 95% 2.0 mph ENE3.2 kmh ENE -- 30.21 in1023.0 mb - 0.00 in0.0 mm 0.01 in0.3 mm
01:27 PM 39.6°F4.2°C 38.3°F3.5°C 95% 2.0 mph ENE3.2 kmh ENE 2.0 mph3.2 kmh 30.21 in1023.0 mb - 0.00 in0.0 mm 0.01 in0.3 mm
01:22 PM 39.7°F4.3°C 38.5°F3.6°C 95% 2.0 mph ENE3.2 kmh ENE 0.9 mph1.4 kmh 30.22 in1023.4 mb - 0.00 in0.0 mm 0.01 in0.3 mm
01:17 PM 39.7°F4.3°C 38.5°F3.6°C 95% 2.0 mph ENE3.2 kmh ENE 0.9 mph1.4 kmh 30.22 in1023.4 mb - 0.00 in0.0 mm 0.01 in0.3 mm
01:12 PM 40.1°F4.5°C 38.8°F3.8°C 95% 2.9 mph E4.7 kmh E 2.9 mph4.7 kmh 30.22 in1023.4 mb - 0.00 in0.0 mm 0.01 in0.3 mm
01:07 PM 40.5°F4.7°C 39.2°F4.0°C 95% 2.9 mph E4.7 kmh E 0.9 mph1.4 kmh 30.22 in1023.4 mb - 0.00 in0.0 mm 0.01 in0.3 mm
01:02 PM 40.8°F4.9°C 39.7°F4.3°C 96% 2.9 mph ESE4.7 kmh ESE 2.9 mph4.7 kmh 30.22 in1023.4 mb - 0.00 in0.0 mm 0.01 in0.3 mm
12:57 PM 41.0°F5.0°C 39.9°F4.4°C 96% 2.0 mph ENE3.2 kmh ENE 4.0 mph6.4 kmh 30.22 in1023.4 mb - 0.00 in0.0 mm 0.01 in0.3 mm
12:52 PM 41.0°F5.0°C 39.9°F4.4°C 96% 2.0 mph NE3.2 kmh NE 2.0 mph3.2 kmh 30.22 in1023.4 mb - 0.00 in0.0 mm 0.01 in0.3 mm
12:47 PM 40.8°F4.9°C 39.7°F4.3°C 96% 2.0 mph NE3.2 kmh NE 0.9 mph1.4 kmh 30.22 in1023.4 mb - 0.00 in0.0 mm 0.01 in0.3 mm
12:42 PM 40.8°F4.9°C 39.7°F4.3°C 96% 0.9 mph NNE1.4 kmh NNE 2.0 mph3.2 kmh 30.22 in1023.4 mb - 0.00 in0.0 mm 0.01 in0.3 mm
12:37 PM 40.6°F4.8°C 39.6°F4.2°C 96% 2.0 mph NNE3.2 kmh NNE 0.9 mph1.4 kmh 30.23 in1023.7 mb - 0.00 in0.0 mm 0.01 in0.3 mm
12:32 PM 40.5°F4.7°C 39.4°F4.1°C 96% 2.0 mph NNE3.2 kmh NNE 2.9 mph4.7 kmh 30.23 in1023.7 mb - 0.00 in0.0 mm 0.01 in0.3 mm
12:27 PM 40.1°F4.5°C 39.0°F3.9°C 96% 2.0 mph NNE3.2 kmh NNE 2.0 mph3.2 kmh 30.24 in1024.0 mb - 0.00 in0.0 mm 0.01 in0.3 mm
12:22 PM 39.9°F4.4°C 38.8°F3.8°C 96% 0.9 mph NNE1.4 kmh NNE 2.0 mph3.2 kmh 30.24 in1024.0 mb - 0.00 in0.0 mm 0.01 in0.3 mm
12:17 PM 39.6°F4.2°C 38.5°F3.6°C 96% 0.9 mph NNE1.4 kmh NNE 0.9 mph1.4 kmh 30.24 in1024.0 mb - 0.00 in0.0 mm 0.01 in0.3 mm
12:12 PM 39.4°F4.1°C 38.3°F3.5°C 96% Calm Calm -- 30.25 in1024.4 mb - 0.00 in0.0 mm 0.01 in0.3 mm
12:07 PM 39.2°F4.0°C 38.1°F3.4°C 96% 0.9 mph NNE1.4 kmh NNE -- 30.25 in1024.4 mb - 0.00 in0.0 mm 0.01 in0.3 mm
12:02 PM 39.0°F3.9°C 37.9°F3.3°C 96% Calm Calm 0.9 mph1.4 kmh 30.25 in1024.4 mb - 0.00 in0.0 mm 0.01 in0.3 mm
11:57 AM 39.0°F3.9°C 37.9°F3.3°C 96% Calm Calm -- 30.26 in1024.7 mb - 0.00 in0.0 mm 0.01 in0.3 mm
11:52 AM 39.0°F3.9°C 37.9°F3.3°C 96% Calm Calm -- 30.26 in1024.7 mb - 0.00 in0.0 mm 0.01 in0.3 mm
11:47 AM 38.8°F3.8°C 37.8°F3.2°C 96% Calm Calm -- 30.26 in1024.7 mb - 0.00 in0.0 mm 0.01 in0.3 mm
11:42 AM 38.3°F3.5°C 37.2°F2.9°C 96% 0.9 mph NNE1.4 kmh NNE 0.9 mph1.4 kmh 30.27 in1025.1 mb - 0.00 in0.0 mm 0.01 in0.3 mm
11:37 AM 37.8°F3.2°C 36.7°F2.6°C 96% 0.9 mph NNE1.4 kmh NNE 2.0 mph3.2 kmh 30.27 in1025.1 mb - 0.00 in0.0 mm 0.01 in0.3 mm
11:32 AM 37.0°F2.8°C 36.0°F2.2°C 96% 0.9 mph NNE1.4 kmh NNE 2.0 mph3.2 kmh 30.27 in1025.1 mb - 0.00 in0.0 mm 0.01 in0.3 mm
11:27 AM 36.0°F2.2°C 34.9°F1.6°C 96% 0.9 mph NNE1.4 kmh NNE -- 30.27 in1025.1 mb - 0.00 in0.0 mm 0.01 in0.3 mm
11:22 AM 35.2°F1.8°C 34.2°F1.2°C 96% 0.9 mph NNE1.4 kmh NNE 0.9 mph1.4 kmh 30.28 in1025.4 mb - 0.00 in0.0 mm 0.01 in0.3 mm
11:17 AM 34.9°F1.6°C 33.8°F1.0°C 96% 0.9 mph NNE1.4 kmh NNE 0.9 mph1.4 kmh 30.28 in1025.4 mb - 0.00 in0.0 mm 0.01 in0.3 mm
11:12 AM 34.5°F1.4°C 33.4°F0.8°C 96% 0.9 mph NNE1.4 kmh NNE 2.0 mph3.2 kmh 30.29 in1025.7 mb - 0.00 in0.0 mm 0.01 in0.3 mm
11:07 AM 34.5°F1.4°C 33.4°F0.8°C 96% 0.9 mph NNE1.4 kmh NNE -- 30.29 in1025.7 mb - 0.00 in0.0 mm 0.01 in0.3 mm
11:02 AM 34.5°F1.4°C 33.4°F0.8°C 96% 0.9 mph NNE1.4 kmh NNE 2.0 mph3.2 kmh 30.29 in1025.7 mb - 0.00 in0.0 mm 0.01 in0.3 mm
10:57 AM 34.5°F1.4°C 33.4°F0.8°C 96% 0.9 mph NNE1.4 kmh NNE 0.9 mph1.4 kmh 30.29 in1025.7 mb - 0.00 in0.0 mm 0.01 in0.3 mm
10:52 AM 34.7°F1.5°C 33.6°F0.9°C 96% 0.9 mph NNE1.4 kmh NNE 2.9 mph4.7 kmh 30.30 in1026.1 mb - 0.00 in0.0 mm 0.01 in0.3 mm
10:47 AM 34.9°F1.6°C 33.8°F1.0°C 96% Calm Calm 2.0 mph3.2 kmh 30.30 in1026.1 mb - 0.00 in0.0 mm 0.01 in0.3 mm
10:42 AM 34.9°F1.6°C 33.8°F1.0°C 96% Calm Calm -- 30.30 in1026.1 mb - 0.00 in0.0 mm 0.01 in0.3 mm
10:37 AM 34.7°F1.5°C 33.6°F0.9°C 96% Calm Calm -- 30.30 in1026.1 mb - 0.00 in0.0 mm 0.01 in0.3 mm
10:32 AM 34.9°F1.6°C 33.8°F1.0°C 96% Calm Calm -- 30.30 in1026.1 mb - 0.00 in0.0 mm 0.01 in0.3 mm
10:27 AM 34.7°F1.5°C 33.6°F0.9°C 96% Calm Calm 0.9 mph1.4 kmh 30.30 in1026.1 mb - 0.00 in0.0 mm 0.01 in0.3 mm
10:22 AM 34.5°F1.4°C 33.4°F0.8°C 96% Calm Calm -- 30.30 in1026.1 mb - 0.00 in0.0 mm 0.01 in0.3 mm
10:17 AM 34.2°F1.2°C 33.1°F0.6°C 96% 0.9 mph W1.4 kmh W -- 30.30 in1026.1 mb - 0.00 in0.0 mm 0.01 in0.3 mm
10:12 AM 34.0°F1.1°C 32.9°F0.5°C 96% 0.9 mph W1.4 kmh W 0.9 mph1.4 kmh 30.31 in1026.4 mb - 0.00 in0.0 mm 0.01 in0.3 mm
10:07 AM 33.8°F1.0°C 32.7°F0.4°C 96% 2.0 mph W3.2 kmh W 0.9 mph1.4 kmh 30.31 in1026.4 mb - 0.00 in0.0 mm 0.01 in0.3 mm
10:02 AM 33.6°F0.9°C 32.5°F0.3°C 96% 2.0 mph W3.2 kmh W 0.9 mph1.4 kmh 30.31 in1026.4 mb - 0.00 in0.0 mm 0.01 in0.3 mm
09:57 AM 33.3°F0.7°C 32.0°F0.0°C 95% 0.9 mph W1.4 kmh W 2.9 mph4.7 kmh 30.31 in1026.4 mb - 0.00 in0.0 mm 0.01 in0.3 mm
09:52 AM 33.1°F0.6°C 31.8°F-0.1°C 95% 0.9 mph SE1.4 kmh SE 0.9 mph1.4 kmh 30.31 in1026.4 mb - 0.00 in0.0 mm 0.01 in0.3 mm
09:47 AM 33.1°F0.6°C 31.8°F-0.1°C 95% 0.9 mph SE1.4 kmh SE 2.0 mph3.2 kmh 30.31 in1026.4 mb - 0.00 in0.0 mm 0.01 in0.3 mm
09:42 AM 33.1°F0.6°C 31.8°F-0.1°C 95% Calm Calm -- 30.31 in1026.4 mb - 0.00 in0.0 mm 0.01 in0.3 mm
09:37 AM 33.3°F0.7°C 32.0°F0.0°C 95% Calm Calm -- 30.31 in1026.4 mb - 0.00 in0.0 mm 0.01 in0.3 mm
09:32 AM 33.1°F0.6°C 31.8°F-0.1°C 95% Calm Calm -- 30.32 in1026.8 mb - 0.00 in0.0 mm 0.01 in0.3 mm
09:27 AM 32.9°F0.5°C 31.6°F-0.2°C 95% Calm Calm -- 30.32 in1026.8 mb - 0.00 in0.0 mm 0.01 in0.3 mm
09:22 AM 32.7°F0.4°C 31.5°F-0.3°C 95% Calm Calm -- 30.32 in1026.8 mb - 0.00 in0.0 mm 0.01 in0.3 mm
09:17 AM 32.7°F0.4°C 31.5°F-0.3°C 95% Calm Calm -- 30.32 in1026.8 mb - 0.00 in0.0 mm 0.01 in0.3 mm
09:12 AM 32.7°F0.4°C 31.5°F-0.3°C 95% Calm Calm -- 30.32 in1026.8 mb - 0.00 in0.0 mm 0.01 in0.3 mm
09:07 AM 32.7°F0.4°C 31.5°F-0.3°C 95% Calm Calm 0.9 mph1.4 kmh 30.32 in1026.8 mb - 0.00 in0.0 mm 0.01 in0.3 mm
09:02 AM 32.9°F0.5°C 31.6°F-0.2°C 95% Calm Calm -- 30.32 in1026.8 mb - 0.00 in0.0 mm 0.01 in0.3 mm
08:57 AM 33.3°F0.7°C 32.0°F0.0°C 95% Calm Calm -- 30.32 in1026.8 mb - 0.00 in0.0 mm 0.01 in0.3 mm
08:52 AM 33.3°F0.7°C 32.0°F0.0°C 95% Calm Calm -- 30.32 in1026.8 mb - 0.00 in0.0 mm 0.01 in0.3 mm
08:47 AM 33.3°F0.7°C 32.0°F0.0°C 95% Calm Calm -- 30.32 in1026.8 mb - 0.00 in0.0 mm 0.01 in0.3 mm
08:42 AM 33.4°F0.8°C 32.2°F0.1°C 95% Calm Calm -- 30.32 in1026.8 mb - 0.00 in0.0 mm 0.01 in0.3 mm
08:37 AM 33.4°F0.8°C 32.2°F0.1°C 95% Calm Calm -- 30.32 in1026.8 mb - 0.00 in0.0 mm 0.01 in0.3 mm
08:32 AM 33.4°F0.8°C 32.2°F0.1°C 95% Calm Calm -- 30.32 in1026.8 mb - 0.00 in0.0 mm 0.01 in0.3 mm
08:27 AM 33.4°F0.8°C 32.2°F0.1°C 95% 0.9 mph SE1.4 kmh SE -- 30.32 in1026.8 mb - 0.00 in0.0 mm 0.01 in0.3 mm
08:22 AM 33.4°F0.8°C 32.2°F0.1°C 95% 0.9 mph SE1.4 kmh SE -- 30.32 in1026.8 mb - 0.00 in0.0 mm 0.01 in0.3 mm
08:17 AM 33.4°F0.8°C 32.2°F0.1°C 95% Calm Calm -- 30.32 in1026.8 mb - 0.00 in0.0 mm 0.01 in0.3 mm
08:12 AM 33.8°F1.0°C 32.5°F0.3°C 95% Calm Calm 0.9 mph1.4 kmh 30.32 in1026.8 mb - 0.00 in0.0 mm 0.01 in0.3 mm
08:07 AM 34.2°F1.2°C 32.9°F0.5°C 95% 0.9 mph SE1.4 kmh SE -- 30.32 in1026.8 mb - 0.00 in0.0 mm 0.01 in0.3 mm
08:02 AM 34.3°F1.3°C 33.1°F0.6°C 95% 0.9 mph SE1.4 kmh SE 0.9 mph1.4 kmh 30.32 in1026.8 mb - 0.00 in0.0 mm 0.01 in0.3 mm
07:57 AM 34.3°F1.3°C 33.1°F0.6°C 95% Calm Calm 0.9 mph1.4 kmh 30.32 in1026.8 mb - 0.00 in0.0 mm 0.01 in0.3 mm
07:52 AM 34.7°F1.5°C 33.4°F0.8°C 95% Calm Calm -- 30.33 in1027.1 mb - 0.00 in0.0 mm 0.01 in0.3 mm
07:47 AM 34.9°F1.6°C 33.6°F0.9°C 95% 0.9 mph W1.4 kmh W -- 30.33 in1027.1 mb - 0.00 in0.0 mm 0.01 in0.3 mm
07:42 AM 35.1°F1.7°C 33.8°F1.0°C 95% 0.9 mph W1.4 kmh W -- 30.33 in1027.1 mb - 0.00 in0.0 mm 0.01 in0.3 mm
07:37 AM 35.1°F1.7°C 33.8°F1.0°C 95% 0.9 mph W1.4 kmh W -- 30.33 in1027.1 mb - 0.00 in0.0 mm 0.01 in0.3 mm
07:32 AM 35.1°F1.7°C 33.8°F1.0°C 95% 0.9 mph W1.4 kmh W 0.9 mph1.4 kmh 30.33 in1027.1 mb - 0.00 in0.0 mm 0.01 in0.3 mm
07:27 AM 35.1°F1.7°C 33.8°F1.0°C 95% 0.9 mph W1.4 kmh W 0.9 mph1.4 kmh 30.33 in1027.1 mb - 0.00 in0.0 mm 0.01 in0.3 mm
07:22 AM 35.1°F1.7°C 33.8°F1.0°C 95% 0.9 mph W1.4 kmh W 0.9 mph1.4 kmh 30.33 in1027.1 mb - 0.00 in0.0 mm 0.01 in0.3 mm
07:17 AM 35.2°F1.8°C 34.0°F1.1°C 95% Calm Calm -- 30.33 in1027.1 mb - 0.00 in0.0 mm 0.01 in0.3 mm
07:12 AM 35.4°F1.9°C 34.2°F1.2°C 95% Calm Calm -- 30.33 in1027.1 mb - 0.00 in0.0 mm 0.01 in0.3 mm
07:07 AM 35.6°F2.0°C 34.5°F1.4°C 96% Calm Calm -- 30.33 in1027.1 mb - 0.00 in0.0 mm 0.01 in0.3 mm
07:02 AM 35.6°F2.0°C 34.5°F1.4°C 96% 0.9 mph W1.4 kmh W -- 30.33 in1027.1 mb - 0.00 in0.0 mm 0.01 in0.3 mm
06:57 AM 35.6°F2.0°C 34.5°F1.4°C 96% Calm Calm -- 30.33 in1027.1 mb - 0.00 in0.0 mm 0.01 in0.3 mm
06:52 AM 35.4°F1.9°C 34.2°F1.2°C 95% Calm Calm -- 30.33 in1027.1 mb - 0.00 in0.0 mm 0.01 in0.3 mm
06:47 AM 35.2°F1.8°C 34.0°F1.1°C 95% Calm Calm -- 30.33 in1027.1 mb - 0.00 in0.0 mm 0.01 in0.3 mm
06:42 AM 35.1°F1.7°C 34.0°F1.1°C 96% Calm Calm -- 30.33 in1027.1 mb - 0.00 in0.0 mm 0.01 in0.3 mm
06:37 AM 34.9°F1.6°C 33.6°F0.9°C 95% Calm Calm -- 30.33 in1027.1 mb - 0.00 in0.0 mm 0.01 in0.3 mm
06:32 AM 34.7°F1.5°C 33.4°F0.8°C 95% Calm Calm -- 30.32 in1026.8 mb - 0.00 in0.0 mm 0.01 in0.3 mm
06:27 AM 34.7°F1.5°C 33.4°F0.8°C 95% Calm Calm -- 30.32 in1026.8 mb - 0.00 in0.0 mm 0.01 in0.3 mm
06:22 AM 34.7°F1.5°C 33.4°F0.8°C 95% 0.9 mph W1.4 kmh W -- 30.32 in1026.8 mb - 0.00 in0.0 mm 0.01 in0.3 mm
06:17 AM 34.7°F1.5°C 33.4°F0.8°C 95% 2.0 mph W3.2 kmh W 0.9 mph1.4 kmh 30.33 in1027.1 mb - 0.00 in0.0 mm 0.01 in0.3 mm
06:12 AM 34.3°F1.3°C 33.1°F0.6°C 95% 0.9 mph W1.4 kmh W 2.0 mph3.2 kmh 30.33 in1027.1 mb - 0.00 in0.0 mm 0.01 in0.3 mm
06:07 AM 34.0°F1.1°C 32.7°F0.4°C 95% Calm Calm 0.9 mph1.4 kmh 30.34 in1027.4 mb - 0.00 in0.0 mm 0.01 in0.3 mm
06:02 AM 33.6°F0.9°C 32.4°F0.2°C 95% Calm Calm -- 30.34 in1027.4 mb - 0.00 in0.0 mm 0.01 in0.3 mm
05:57 AM 33.6°F0.9°C 32.4°F0.2°C 95% Calm Calm -- 30.33 in1027.1 mb - 0.00 in0.0 mm 0.01 in0.3 mm
05:52 AM 33.6°F0.9°C 32.4°F0.2°C 95% Calm Calm -- 30.33 in1027.1 mb - 0.00 in0.0 mm 0.01 in0.3 mm
05:47 AM 33.8°F1.0°C 32.5°F0.3°C 95% 0.9 mph SW1.4 kmh SW -- 30.33 in1027.1 mb - 0.00 in0.0 mm 0.01 in0.3 mm
05:42 AM 34.0°F1.1°C 32.7°F0.4°C 95% 0.9 mph SW1.4 kmh SW -- 30.33 in1027.1 mb - 0.00 in0.0 mm 0.01 in0.3 mm
05:37 AM 34.2°F1.2°C 32.9°F0.5°C 95% 0.9 mph SW1.4 kmh SW 0.9 mph1.4 kmh 30.32 in1026.8 mb - 0.00 in0.0 mm 0.01 in0.3 mm
05:32 AM 34.3°F1.3°C 33.1°F0.6°C 95% 0.9 mph SW1.4 kmh SW 0.9 mph1.4 kmh 30.33 in1027.1 mb - 0.00 in0.0 mm 0.01 in0.3 mm
05:27 AM 34.3°F1.3°C 33.1°F0.6°C 95% 0.9 mph SW1.4 kmh SW -- 30.33 in1027.1 mb - 0.00 in0.0 mm 0.01 in0.3 mm
05:22 AM 34.5°F1.4°C 33.3°F0.7°C 95% Calm Calm 0.9 mph1.4 kmh 30.33 in1027.1 mb - 0.00 in0.0 mm 0.01 in0.3 mm
05:17 AM 34.5°F1.4°C 33.3°F0.7°C 95% Calm Calm -- 30.33 in1027.1 mb - 0.00 in0.0 mm 0.01 in0.3 mm
05:12 AM 34.5°F1.4°C 33.3°F0.7°C 95% 0.9 mph SW1.4 kmh SW -- 30.33 in1027.1 mb - 0.00 in0.0 mm 0.01 in0.3 mm
05:07 AM 34.5°F1.4°C 33.3°F0.7°C 95% 0.9 mph SW1.4 kmh SW 0.9 mph1.4 kmh 30.33 in1027.1 mb - 0.00 in0.0 mm 0.01 in0.3 mm
05:02 AM 34.5°F1.4°C 33.3°F0.7°C 95% 0.9 mph SW1.4 kmh SW 0.9 mph1.4 kmh 30.33 in1027.1 mb - 0.00 in0.0 mm 0.01 in0.3 mm
04:57 AM 34.5°F1.4°C 33.3°F0.7°C 95% 0.9 mph SW1.4 kmh SW 0.9 mph1.4 kmh 30.33 in1027.1 mb - 0.00 in0.0 mm 0.01 in0.3 mm
04:52 AM 34.5°F1.4°C 33.3°F0.7°C 95% Calm Calm 0.9 mph1.4 kmh 30.33 in1027.1 mb - 0.00 in0.0 mm 0.01 in0.3 mm
04:47 AM 34.7°F1.5°C 33.1°F0.6°C 94% 0.9 mph SW1.4 kmh SW -- 30.33 in1027.1 mb - 0.00 in0.0 mm 0.01 in0.3 mm
04:42 AM 34.9°F1.6°C 33.3°F0.7°C 94% 2.0 mph SW3.2 kmh SW -- 30.33 in1027.1 mb - 0.00 in0.0 mm 0.01 in0.3 mm
04:37 AM 35.2°F1.8°C 34.0°F1.1°C 95% 2.0 mph SW3.2 kmh SW 0.9 mph1.4 kmh 30.33 in1027.1 mb - 0.00 in0.0 mm 0.01 in0.3 mm
04:32 AM 35.4°F1.9°C 33.8°F1.0°C 94% 0.9 mph SW1.4 kmh SW 2.0 mph3.2 kmh 30.34 in1027.4 mb - 0.00 in0.0 mm 0.01 in0.3 mm
04:27 AM 35.8°F2.1°C 34.5°F1.4°C 95% Calm Calm -- 30.34 in1027.4 mb - 0.00 in0.0 mm 0.01 in0.3 mm
04:22 AM 36.1°F2.3°C 34.9°F1.6°C 95% Calm Calm -- 30.34 in1027.4 mb - 0.00 in0.0 mm 0.01 in0.3 mm
04:17 AM 36.1°F2.3°C 34.9°F1.6°C 95% 0.9 mph SW1.4 kmh SW 0.9 mph1.4 kmh 30.34 in1027.4 mb - 0.00 in0.0 mm 0.01 in0.3 mm
04:12 AM 36.3°F2.4°C 35.1°F1.7°C 95% 0.9 mph SW1.4 kmh SW 2.0 mph3.2 kmh 30.34 in1027.4 mb - 0.00 in0.0 mm 0.01 in0.3 mm
04:07 AM 36.1°F2.3°C 34.9°F1.6°C 95% 0.9 mph SW1.4 kmh SW 0.9 mph1.4 kmh 30.34 in1027.4 mb - 0.00 in0.0 mm 0.01 in0.3 mm
04:02 AM 35.8°F2.1°C 34.2°F1.2°C 94% 0.9 mph SW1.4 kmh SW 0.9 mph1.4 kmh 30.33 in1027.1 mb - 0.00 in0.0 mm 0.01 in0.3 mm
03:57 AM 35.2°F1.8°C 33.6°F0.9°C 94% 0.9 mph SW1.4 kmh SW 0.9 mph1.4 kmh 30.34 in1027.4 mb - 0.00 in0.0 mm 0.01 in0.3 mm
03:52 AM 35.4°F1.9°C 33.8°F1.0°C 94% Calm Calm 0.9 mph1.4 kmh 30.34 in1027.4 mb - 0.00 in0.0 mm 0.01 in0.3 mm
03:47 AM 35.4°F1.9°C 33.8°F1.0°C 94% Calm Calm -- 30.34 in1027.4 mb - 0.00 in0.0 mm 0.00 in0.0 mm
03:42 AM 35.8°F2.1°C 34.2°F1.2°C 94% 0.9 mph SW1.4 kmh SW -- 30.34 in1027.4 mb - 0.00 in0.0 mm 0.00 in0.0 mm
03:37 AM 36.1°F2.3°C 34.5°F1.4°C 94% 0.9 mph SW1.4 kmh SW 0.9 mph1.4 kmh 30.34 in1027.4 mb - 0.00 in0.0 mm 0.00 in0.0 mm
03:32 AM 36.3°F2.4°C 34.7°F1.5°C 94% Calm Calm 0.9 mph1.4 kmh 30.34 in1027.4 mb - 0.00 in0.0 mm 0.00 in0.0 mm
03:27 AM 36.7°F2.6°C 35.1°F1.7°C 94% Calm Calm -- 30.34 in1027.4 mb - 0.00 in0.0 mm 0.00 in0.0 mm
03:22 AM 36.9°F2.7°C 35.2°F1.8°C 94% Calm Calm -- 30.34 in1027.4 mb - 0.00 in0.0 mm 0.00 in0.0 mm
03:17 AM 37.0°F2.8°C 35.4°F1.9°C 94% Calm Calm -- 30.34 in1027.4 mb - 0.00 in0.0 mm 0.00 in0.0 mm
03:12 AM 37.2°F2.9°C 35.6°F2.0°C 94% Calm Calm 0.9 mph1.4 kmh 30.34 in1027.4 mb - 0.00 in0.0 mm 0.00 in0.0 mm
03:07 AM 37.6°F3.1°C 36.0°F2.2°C 94% Calm Calm -- 30.34 in1027.4 mb - 0.00 in0.0 mm 0.00 in0.0 mm
03:02 AM 37.8°F3.2°C 36.1°F2.3°C 94% 0.9 mph SW1.4 kmh SW 0.9 mph1.4 kmh 30.35 in1027.8 mb - 0.00 in0.0 mm 0.00 in0.0 mm
02:57 AM 37.9°F3.3°C 36.3°F2.4°C 94% Calm Calm 0.9 mph1.4 kmh 30.35 in1027.8 mb - 0.00 in0.0 mm 0.00 in0.0 mm
02:52 AM 38.3°F3.5°C 36.5°F2.5°C 93% Calm Calm 0.9 mph1.4 kmh 30.35 in1027.8 mb - 0.00 in0.0 mm 0.00 in0.0 mm
02:47 AM 38.8°F3.8°C 37.2°F2.9°C 94% Calm Calm -- 30.35 in1027.8 mb - 0.00 in0.0 mm 0.00 in0.0 mm
02:42 AM 39.4°F4.1°C 37.8°F3.2°C 94% Calm Calm -- 30.35 in1027.8 mb - 0.00 in0.0 mm 0.00 in0.0 mm
02:37 AM 39.7°F4.3°C 38.1°F3.4°C 94% Calm Calm -- 30.35 in1027.8 mb - 0.00 in0.0 mm 0.00 in0.0 mm
02:32 AM 39.9°F4.4°C 38.3°F3.5°C 94% 0.9 mph SW1.4 kmh SW -- 30.35 in1027.8 mb - 0.00 in0.0 mm 0.00 in0.0 mm
02:27 AM 40.1°F4.5°C 38.5°F3.6°C 94% 0.9 mph SW1.4 kmh SW 0.9 mph1.4 kmh 30.35 in1027.8 mb - 0.00 in0.0 mm 0.00 in0.0 mm
02:22 AM 40.5°F4.7°C 38.8°F3.8°C 94% 0.9 mph SW1.4 kmh SW 0.9 mph1.4 kmh 30.35 in1027.8 mb - 0.00 in0.0 mm 0.00 in0.0 mm
02:17 AM 40.6°F4.8°C 39.0°F3.9°C 94% 2.0 mph SW3.2 kmh SW 0.9 mph1.4 kmh 30.35 in1027.8 mb - 0.00 in0.0 mm 0.00 in0.0 mm
02:12 AM 40.8°F4.9°C 39.6°F4.2°C 95% 2.0 mph WSW3.2 kmh WSW 0.9 mph1.4 kmh 30.35 in1027.8 mb - 0.00 in0.0 mm 0.00 in0.0 mm
02:07 AM 41.2°F5.1°C 39.9°F4.4°C 95% 2.0 mph SW3.2 kmh SW 2.0 mph3.2 kmh 30.35 in1027.8 mb - 0.00 in0.0 mm 0.00 in0.0 mm
02:02 AM 41.4°F5.2°C 40.1°F4.5°C 95% 0.9 mph SW1.4 kmh SW -- 30.35 in1027.8 mb - 0.00 in0.0 mm 0.00 in0.0 mm
01:57 AM 41.4°F5.2°C 40.1°F4.5°C 95% 0.9 mph SW1.4 kmh SW 2.0 mph3.2 kmh 30.35 in1027.8 mb - 0.00 in0.0 mm 0.00 in0.0 mm
01:52 AM 41.4°F5.2°C 40.1°F4.5°C 95% 2.0 mph SW3.2 kmh SW 0.9 mph1.4 kmh 30.36 in1028.1 mb - 0.00 in0.0 mm 0.00 in0.0 mm
01:47 AM 41.2°F5.1°C 39.9°F4.4°C 95% 0.9 mph SW1.4 kmh SW 2.9 mph4.7 kmh 30.36 in1028.1 mb - 0.00 in0.0 mm 0.00 in0.0 mm
01:42 AM 41.4°F5.2°C 40.1°F4.5°C 95% 2.0 mph SW3.2 kmh SW -- 30.36 in1028.1 mb - 0.00 in0.0 mm 0.00 in0.0 mm
01:37 AM 41.4°F5.2°C 40.1°F4.5°C 95% 2.0 mph SW3.2 kmh SW 0.9 mph1.4 kmh 30.36 in1028.1 mb - 0.00 in0.0 mm 0.00 in0.0 mm
01:32 AM 41.7°F5.4°C 40.5°F4.7°C 95% 0.9 mph SSW1.4 kmh SSW 2.0 mph3.2 kmh 30.36 in1028.1 mb - 0.00 in0.0 mm 0.00 in0.0 mm
01:27 AM 41.7°F5.4°C 40.5°F4.7°C 95% 0.9 mph WNW1.4 kmh WNW 0.9 mph1.4 kmh 30.36 in1028.1 mb - 0.00 in0.0 mm 0.00 in0.0 mm
01:22 AM 41.9°F5.5°C 40.6°F4.8°C 95% 0.9 mph WNW1.4 kmh WNW 0.9 mph1.4 kmh 30.36 in1028.1 mb - 0.00 in0.0 mm 0.00 in0.0 mm
01:17 AM 41.7°F5.4°C 40.5°F4.7°C 95% 0.9 mph WNW1.4 kmh WNW 2.0 mph3.2 kmh 30.36 in1028.1 mb - 0.00 in0.0 mm 0.00 in0.0 mm
01:12 AM 41.7°F5.4°C 40.5°F4.7°C 95% 2.0 mph WNW3.2 kmh WNW 2.0 mph3.2 kmh 30.36 in1028.1 mb - 0.00 in0.0 mm 0.00 in0.0 mm
01:07 AM 41.5°F5.3°C 40.3°F4.6°C 95% 2.0 mph WNW3.2 kmh WNW 2.0 mph3.2 kmh 30.37 in1028.4 mb - 0.00 in0.0 mm 0.00 in0.0 mm
01:02 AM 41.4°F5.2°C 40.1°F4.5°C 95% 2.0 mph W3.2 kmh W 0.9 mph1.4 kmh 30.36 in1028.1 mb - 0.00 in0.0 mm 0.00 in0.0 mm
12:57 AM 41.4°F5.2°C 40.1°F4.5°C 95% 2.0 mph W3.2 kmh W 2.9 mph4.7 kmh 30.37 in1028.4 mb - 0.00 in0.0 mm 0.00 in0.0 mm
12:52 AM 41.4°F5.2°C 40.1°F4.5°C 95% 2.0 mph W3.2 kmh W 2.0 mph3.2 kmh 30.37 in1028.4 mb - 0.00 in0.0 mm 0.00 in0.0 mm
12:47 AM 41.4°F5.2°C 40.1°F4.5°C 95% 2.0 mph SW3.2 kmh SW 2.0 mph3.2 kmh 30.37 in1028.4 mb - 0.00 in0.0 mm 0.00 in0.0 mm
12:42 AM 41.5°F5.3°C 40.3°F4.6°C 95% 2.0 mph SW3.2 kmh SW 2.0 mph3.2 kmh 30.37 in1028.4 mb - 0.00 in0.0 mm 0.00 in0.0 mm
12:37 AM 42.1°F5.6°C 40.8°F4.9°C 95% 2.0 mph WSW3.2 kmh WSW 2.9 mph4.7 kmh 30.37 in1028.4 mb - 0.00 in0.0 mm 0.00 in0.0 mm
12:32 AM 42.1°F5.6°C 41.0°F5.0°C 96% 2.0 mph W3.2 kmh W 2.9 mph4.7 kmh 30.37 in1028.4 mb - 0.00 in0.0 mm 0.00 in0.0 mm
12:27 AM 41.9°F5.5°C 40.8°F4.9°C 96% 2.9 mph W4.7 kmh W 2.9 mph4.7 kmh 30.37 in1028.4 mb - 0.00 in0.0 mm 0.00 in0.0 mm
12:22 AM 41.9°F5.5°C 40.8°F4.9°C 96% 2.9 mph W4.7 kmh W 0.9 mph1.4 kmh 30.37 in1028.4 mb - 0.00 in0.0 mm 0.00 in0.0 mm
12:17 AM 41.7°F5.4°C 40.6°F4.8°C 96% 2.9 mph W4.7 kmh W 2.0 mph3.2 kmh 30.37 in1028.4 mb - 0.00 in0.0 mm 0.00 in0.0 mm
12:12 AM 41.5°F5.3°C 40.5°F4.7°C 96% 2.0 mph W3.2 kmh W 2.0 mph3.2 kmh 30.37 in1028.4 mb - 0.00 in0.0 mm 0.00 in0.0 mm
12:07 AM 41.0°F5.0°C 39.9°F4.4°C 96% 2.0 mph WSW3.2 kmh WSW 2.0 mph3.2 kmh 30.37 in1028.4 mb - 0.00 in0.0 mm 0.00 in0.0 mm
12:02 AM 40.8°F4.9°C 39.7°F4.3°C 96% 2.0 mph WSW3.2 kmh WSW 2.0 mph3.2 kmh 30.37 in1028.4 mb - 0.00 in0.0 mm 0.11 in2.8 mm